Time;durP1;ratioP1;P1;durP2;ratioP2;P2;SDS_P1;SDS_P2;PMS_P1;PMS_P2;Temp;Humidity;BMP_temperature;BMP_pressure;BME280_temperature;BME280_humidity;BME280_pressure;Samples;Min_cycle;Max_cycle;Signal;HPM_P1;HPM_P2
2023/01/27 00:01:58;;;;;;;0.10;0.10;;;;;;;;;;7374187;19;20719;-70
2023/01/27 00:04:27;;;;;;;0.10;0.10;;;;;;;;;;7376253;19;20614;-70
2023/01/27 00:06:56;;;;;;;0.10;0.10;;;;;;;;;;7375086;19;20675;-70
2023/01/27 00:09:25;;;;;;;0.10;0.10;;;;;;;;;;7375028;19;20639;-70
2023/01/27 00:14:35;;;;;;;0.10;0.10;;;;;;;;;;7375338;19;20618;-70
2023/01/27 00:17:07;;;;;;;0.10;0.10;;;;;;;;;;7374930;19;20626;-70
2023/01/27 00:19:36;;;;;;;0.20;0.20;;;;;;;;;;7374249;19;20635;-70
2023/01/27 00:24:46;;;;;;;0.10;0.10;;;;;;;;;;7376296;19;20696;-70
2023/01/27 00:27:15;;;;;;;0.10;0.10;;;;;;;;;;7374069;19;20707;-70
2023/01/27 00:29:44;;;;;;;0.10;0.10;;;;;;;;;;7376526;19;20667;-70
2023/01/27 00:34:57;;;;;;;0.10;0.10;;;;;;;;;;7375415;19;20618;-70
2023/01/27 00:37:26;;;;;;;0.10;0.10;;;;;;;;;;7375311;19;20631;-70
2023/01/27 00:39:55;;;;;;;0.10;0.10;;;;;;;;;;7373327;19;20619;-71
2023/01/27 00:42:24;;;;;;;0.10;0.10;;;;;;;;;;7373407;19;20662;-70
2023/01/27 00:47:37;;;;;;;0.10;0.10;;;;;;;;;;7375833;19;20627;-71
2023/01/27 00:50:06;;;;;;;0.10;0.10;;;;;;;;;;7373354;19;20678;-71
2023/01/27 00:52:35;;;;;;;0.10;0.10;;;;;;;;;;7373879;19;20726;-71
2023/01/27 00:55:04;;;;;;;0.10;0.10;;;;;;;;;;7373122;19;20627;-71
2023/01/27 00:57:33;;;;;;;0.10;0.10;;;;;;;;;;7373752;19;20653;-71
2023/01/27 01:00:02;;;;;;;0.10;0.10;;;;;;;;;;7373234;19;20615;-71
2023/01/27 01:02:32;;;;;;;0.10;0.10;;;;;;;;;;7373317;19;20689;-71
2023/01/27 01:05:03;;;;;;;0.10;0.10;;;;;;;;;;7373866;19;20627;-70
2023/01/27 01:07:33;;;;;;;0.10;0.10;;;;;;;;;;7371879;19;20615;-71
2023/01/27 01:10:02;;;;;;;0.10;0.10;;;;;;;;;;7373909;19;20623;-71
2023/01/27 01:12:31;;;;;;;0.13;0.13;;;;;;;;;;7372685;19;20725;-71
2023/01/27 01:14:59;;;;;;;0.13;0.13;;;;;;;;;;7374197;19;20595;-71
2023/01/27 01:17:28;;;;;;;0.10;0.10;;;;;;;;;;7374012;19;20678;-71
2023/01/27 01:19:59;;;;;;;0.10;0.10;;;;;;;;;;7373966;19;20611;-71
2023/01/27 01:22:31;;;;;;;0.10;0.10;;;;;;;;;;7372311;19;20678;-71
2023/01/27 01:25:00;;;;;;;0.10;0.10;;;;;;;;;;7374258;19;20786;-71
2023/01/27 01:27:29;;;;;;;0.10;0.10;;;;;;;;;;7373510;19;20651;-71
2023/01/27 01:29:59;;;;;;;0.10;0.10;;;;;;;;;;7375033;19;20631;-72
2023/01/27 01:32:28;;;;;;;0.10;0.10;;;;;;;;;;7372487;19;20712;-72
2023/01/27 01:34:57;;;;;;;0.10;0.10;;;;;;;;;;7374056;19;20651;-72
2023/01/27 01:37:26;;;;;;;0.10;0.10;;;;;;;;;;7373402;19;20688;-72
2023/01/27 01:39:58;;;;;;;0.13;0.13;;;;;;;;;;7372329;19;20639;-72
2023/01/27 01:42:27;;;;;;;0.10;0.10;;;;;;;;;;7372275;19;20723;-72
2023/01/27 01:45:17;;;;;;;0.10;0.10;;;;;;;;;;7373230;19;20687;-72
2023/01/27 01:47:49;;;;;;;0.10;0.10;;;;;;;;;;7374195;19;20765;-72
2023/01/27 01:50:18;;;;;;;0.10;0.10;;;;;;;;;;7371219;19;20639;-72
2023/01/27 01:52:47;;;;;;;0.10;0.10;;;;;;;;;;7365253;19;20659;-72
2023/01/27 01:55:15;;;;;;;0.10;0.10;;;;;;;;;;7371391;19;20655;-72
2023/01/27 01:57:44;;;;;;;0.10;0.10;;;;;;;;;;7373775;19;20682;-72
2023/01/27 02:00:14;;;;;;;0.10;0.10;;;;;;;;;;7368328;19;20635;-72
2023/01/27 02:02:43;;;;;;;0.10;0.10;;;;;;;;;;7373493;19;20618;-72
2023/01/27 02:05:18;;;;;;;0.10;0.10;;;;;;;;;;7370295;19;20685;-72
2023/01/27 02:07:52;;;;;;;0.10;0.10;;;;;;;;;;7372738;19;20682;-71
2023/01/27 02:10:25;;;;;;;0.20;0.20;;;;;;;;;;7370775;19;20721;-71
2023/01/27 02:12:54;;;;;;;0.10;0.10;;;;;;;;;;7370993;19;20670;-71
2023/01/27 02:15:23;;;;;;;0.10;0.10;;;;;;;;;;7371225;19;20695;-72
2023/01/27 02:17:54;;;;;;;0.10;0.10;;;;;;;;;;7374888;19;20673;-71
2023/01/27 02:20:30;;;;;;;0.10;0.10;;;;;;;;;;7375516;19;20634;-71
2023/01/27 02:23:05;;;;;;;0.20;0.20;;;;;;;;;;7376536;19;20654;-71
2023/01/27 02:25:42;;;;;;;0.10;0.10;;;;;;;;;;7378461;19;20714;-71
2023/01/27 02:28:11;;;;;;;0.10;0.10;;;;;;;;;;7378765;19;20626;-71
2023/01/27 02:30:40;;;;;;;0.10;0.10;;;;;;;;;;7379362;19;20623;-71
2023/01/27 02:33:13;;;;;;;0.10;0.10;;;;;;;;;;7376211;19;20728;-71
2023/01/27 02:35:45;;;;;;;0.10;0.10;;;;;;;;;;7379793;19;20663;-71
2023/01/27 02:38:15;;;;;;;0.10;0.10;;;;;;;;;;7376819;19;20607;-71
2023/01/27 02:40:47;;;;;;;0.10;0.10;;;;;;;;;;7380323;19;20783;-71
2023/01/27 02:43:16;;;;;;;0.10;0.10;;;;;;;;;;7375086;19;20724;-72
2023/01/27 02:45:45;;;;;;;0.10;0.10;;;;;;;;;;7379076;19;20619;-72
2023/01/27 02:48:13;;;;;;;0.10;0.10;;;;;;;;;;7377024;19;20705;-71
2023/01/27 02:50:42;;;;;;;0.10;0.10;;;;;;;;;;7381014;19;20599;-71
2023/01/27 02:53:11;;;;;;;0.10;0.10;;;;;;;;;;7376790;19;20654;-72
2023/01/27 02:55:40;;;;;;;0.10;0.10;;;;;;;;;;7376898;19;20697;-72
2023/01/27 02:58:17;;;;;;;0.10;0.10;;;;;;;;;;7378895;19;20649;-72
2023/01/27 03:00:50;;;;;;;0.10;0.10;;;;;;;;;;7377777;19;20630;-72
2023/01/27 03:03:19;;;;;;;0.10;0.10;;;;;;;;;;7377795;19;20623;-73
2023/01/27 03:05:49;;;;;;;0.10;0.10;;;;;;;;;;7379251;19;20610;-72
2023/01/27 03:08:19;;;;;;;0.10;0.10;;;;;;;;;;7376916;19;20675;-72
2023/01/27 03:10:52;;;;;;;0.10;0.10;;;;;;;;;;7377610;19;20761;-72
2023/01/27 03:13:27;;;;;;;0.10;0.10;;;;;;;;;;7377268;19;20630;-72
2023/01/27 03:18:38;;;;;;;0.10;0.10;;;;;;;;;;7375977;19;20623;-71
2023/01/27 03:21:09;;;;;;;0.10;0.10;;;;;;;;;;7376255;19;20647;-70
2023/01/27 03:23:37;;;;;;;0.10;0.10;;;;;;;;;;7376314;19;20631;-70
2023/01/27 03:26:08;;;;;;;0.10;0.10;;;;;;;;;;7378999;19;20694;-70
2023/01/27 03:28:42;;;;;;;0.10;0.10;;;;;;;;;;7374586;19;20737;-70
2023/01/27 03:31:21;;;;;;;0.13;0.13;;;;;;;;;;7376148;19;20642;-70
2023/01/27 03:33:59;;;;;;;0.10;0.10;;;;;;;;;;7376449;19;20716;-70
2023/01/27 03:47:28;;;;;;;0.10;0.10;;;;;;;;;;7375940;19;20631;-70
2023/01/27 03:49:57;;;;;;;0.10;0.10;;;;;;;;;;7375225;19;20626;-70
2023/01/27 03:52:26;;;;;;;0.10;0.10;;;;;;;;;;7374700;19;20796;-71
2023/01/27 03:54:55;;;;;;;0.10;0.10;;;;;;;;;;7376231;19;20635;-72
2023/01/27 03:57:24;;;;;;;0.13;0.13;;;;;;;;;;7376244;19;20631;-72
2023/01/27 03:59:56;;;;;;;0.10;0.10;;;;;;;;;;7376040;19;20623;-73
2023/01/27 04:07:48;;;;;;;0.10;0.10;;;;;;;;;;7376384;19;20622;-72
2023/01/27 04:10:17;;;;;;;0.10;0.10;;;;;;;;;;7376125;19;21048;-72
2023/01/27 04:12:44;;;;;;;0.10;0.10;;;;;;;;;;7374486;19;20670;-72
2023/01/27 04:15:16;;;;;;;0.10;0.10;;;;;;;;;;7375666;19;20700;-71
2023/01/27 04:17:48;;;;;;;0.10;0.10;;;;;;;;;;7375921;19;20659;-71
2023/01/27 04:20:18;;;;;;;0.10;0.10;;;;;;;;;;7375424;19;20603;-71
2023/01/27 04:22:47;;;;;;;0.10;0.10;;;;;;;;;;7373479;19;20725;-71
2023/01/27 04:25:15;;;;;;;0.10;0.10;;;;;;;;;;7376458;19;20623;-70
2023/01/27 04:27:44;;;;;;;0.10;0.10;;;;;;;;;;7375814;19;20709;-71
2023/01/27 04:30:17;;;;;;;0.10;0.10;;;;;;;;;;7375433;19;20622;-70
2023/01/27 04:32:45;;;;;;;0.10;0.10;;;;;;;;;;7374682;19;20650;-70
2023/01/27 04:35:14;;;;;;;0.10;0.10;;;;;;;;;;7376716;19;20611;-70
2023/01/27 04:37:43;;;;;;;0.10;0.10;;;;;;;;;;7376129;19;20623;-70
2023/01/27 04:40:13;;;;;;;0.10;0.10;;;;;;;;;;7371999;19;20631;-70
2023/01/27 04:42:42;;;;;;;0.10;0.10;;;;;;;;;;7374194;19;20184;-70
2023/01/27 04:45:12;;;;;;;0.10;0.10;;;;;;;;;;7373754;19;20615;-70
2023/01/27 04:47:43;;;;;;;0.10;0.10;;;;;;;;;;7376222;19;20678;-70
2023/01/27 04:50:13;;;;;;;0.10;0.10;;;;;;;;;;7373905;19;20685;-70
2023/01/27 04:52:44;;;;;;;0.10;0.10;;;;;;;;;;7374124;19;20666;-70
2023/01/27 04:55:13;;;;;;;0.10;0.10;;;;;;;;;;7373349;19;20610;-70
2023/01/27 04:57:42;;;;;;;0.10;0.10;;;;;;;;;;7375524;19;20623;-70
2023/01/27 05:00:14;;;;;;;0.20;0.20;;;;;;;;;;7373510;19;20639;-71
2023/01/27 05:02:45;;;;;;;0.10;0.10;;;;;;;;;;7374133;19;20769;-70
2023/01/27 05:05:14;;;;;;;0.10;0.10;;;;;;;;;;7374841;19;20626;-70
2023/01/27 05:07:43;;;;;;;0.10;0.10;;;;;;;;;;7375281;19;20635;-70
2023/01/27 05:10:13;;;;;;;0.10;0.10;;;;;;;;;;7375337;19;20799;-70
2023/01/27 05:12:42;;;;;;;0.10;0.10;;;;;;;;;;7372034;19;20701;-70
2023/01/27 05:15:11;;;;;;;0.10;0.10;;;;;;;;;;7374210;19;20695;-70
2023/01/27 05:17:40;;;;;;;0.10;0.10;;;;;;;;;;7375002;19;20607;-71
2023/01/27 05:20:12;;;;;;;0.10;0.10;;;;;;;;;;7374113;19;20643;-70
2023/01/27 05:22:41;;;;;;;0.10;0.10;;;;;;;;;;7373957;19;20695;-70
2023/01/27 05:25:10;;;;;;;0.10;0.10;;;;;;;;;;7375170;19;20712;-72
2023/01/27 05:27:39;;;;;;;0.10;0.10;;;;;;;;;;7376436;19;20638;-71
2023/01/27 05:30:09;;;;;;;0.10;0.10;;;;;;;;;;7373157;19;20634;-73
2023/01/27 05:32:38;;;;;;;0.10;0.10;;;;;;;;;;7373512;19;20733;-73
2023/01/27 05:35:08;;;;;;;0.10;0.10;;;;;;;;;;7374349;19;20691;-73
2023/01/27 05:37:39;;;;;;;0.10;0.10;;;;;;;;;;7374663;19;20634;-72
2023/01/27 05:40:09;;;;;;;0.10;0.10;;;;;;;;;;7372957;19;20646;-72
2023/01/27 05:42:38;;;;;;;0.10;0.10;;;;;;;;;;7372480;19;20651;-71
2023/01/27 05:45:08;;;;;;;0.10;0.10;;;;;;;;;;7372837;19;20623;-71
2023/01/27 05:47:37;;;;;;;0.10;0.10;;;;;;;;;;7374439;19;20623;-71
2023/01/27 05:50:06;;;;;;;0.10;0.10;;;;;;;;;;7373573;19;20623;-71
2023/01/27 05:52:35;;;;;;;0.10;0.10;;;;;;;;;;7374039;19;20642;-72
2023/01/27 05:55:08;;;;;;;0.10;0.10;;;;;;;;;;7381690;19;20630;-74
2023/01/27 05:57:39;;;;;;;0.10;0.10;;;;;;;;;;7382248;19;20614;-73
2023/01/27 06:00:09;;;;;;;0.10;0.10;;;;;;;;;;7380589;19;20642;-72
2023/01/27 06:02:38;;;;;;;0.10;0.10;;;;;;;;;;7380633;19;20623;-72
2023/01/27 06:05:07;;;;;;;0.20;0.20;;;;;;;;;;7380907;19;20681;-73
2023/01/27 06:07:36;;;;;;;0.10;0.10;;;;;;;;;;7379581;19;20622;-72
2023/01/27 06:10:08;;;;;;;0.10;0.10;;;;;;;;;;7380564;19;20626;-73
2023/01/27 06:12:38;;;;;;;0.10;0.10;;;;;;;;;;7376748;19;20720;-73
2023/01/27 06:15:07;;;;;;;0.10;0.10;;;;;;;;;;7380723;19;20618;-73
2023/01/27 06:17:36;;;;;;;0.10;0.10;;;;;;;;;;7380635;19;20618;-72
2023/01/27 06:20:05;;;;;;;0.10;0.10;;;;;;;;;;7379551;19;20619;-72
2023/01/27 06:22:34;;;;;;;0.10;0.10;;;;;;;;;;7377348;19;20685;-72
2023/01/27 06:25:03;;;;;;;0.10;0.10;;;;;;;;;;7380516;19;20631;-72
2023/01/27 06:27:34;;;;;;;0.10;0.10;;;;;;;;;;7379775;19;20626;-73
2023/01/27 06:30:03;;;;;;;0.10;0.10;;;;;;;;;;7379795;19;20744;-73
2023/01/27 06:32:32;;;;;;;0.10;0.10;;;;;;;;;;7376949;19;20666;-72
2023/01/27 06:35:01;;;;;;;0.10;0.10;;;;;;;;;;7379000;19;20622;-74
2023/01/27 06:37:31;;;;;;;0.17;0.17;;;;;;;;;;7380022;19;20603;-74
2023/01/27 06:40:00;;;;;;;0.10;0.10;;;;;;;;;;7379657;19;20635;-74
2023/01/27 06:42:29;;;;;;;0.10;0.10;;;;;;;;;;7377636;19;20698;-74
2023/01/27 06:45:00;;;;;;;0.10;0.10;;;;;;;;;;7379549;19;20670;-74
2023/01/27 06:47:29;;;;;;;0.20;0.20;;;;;;;;;;7378240;19;20652;-74
2023/01/27 06:49:58;;;;;;;0.10;0.10;;;;;;;;;;7378027;19;20610;-73
2023/01/27 06:52:28;;;;;;;0.10;0.10;;;;;;;;;;7377186;19;20746;-74
2023/01/27 06:54:57;;;;;;;0.10;0.10;;;;;;;;;;7378575;19;20645;-74
2023/01/27 06:57:26;;;;;;;0.10;0.10;;;;;;;;;;7378147;19;20685;-74
2023/01/27 06:59:55;;;;;;;0.10;0.10;;;;;;;;;;7379177;19;20634;-74
2023/01/27 07:02:26;;;;;;;0.10;0.10;;;;;;;;;;7374877;19;20650;-74
2023/01/27 07:04:58;;;;;;;0.10;0.10;;;;;;;;;;7375627;19;20623;-75
2023/01/27 07:07:27;;;;;;;0.10;0.10;;;;;;;;;;7377350;19;20622;-74
2023/01/27 07:09:56;;;;;;;0.10;0.10;;;;;;;;;;7379599;19;20634;-75
2023/01/27 07:12:25;;;;;;;0.10;0.10;;;;;;;;;;7377099;19;20655;-75
2023/01/27 07:14:54;;;;;;;0.10;0.10;;;;;;;;;;7377960;19;20623;-74
2023/01/27 07:17:23;;;;;;;0.10;0.10;;;;;;;;;;7379097;19;20630;-74
2023/01/27 07:19:55;;;;;;;0.20;0.20;;;;;;;;;;7378112;19;20614;-74
2023/01/27 07:22:24;;;;;;;0.10;0.10;;;;;;;;;;7375946;19;20642;-73
2023/01/27 07:24:54;;;;;;;0.10;0.10;;;;;;;;;;7377640;19;20630;-73
2023/01/27 07:27:23;;;;;;;0.10;0.10;;;;;;;;;;7378221;19;20689;-73
2023/01/27 07:29:52;;;;;;;0.10;0.10;;;;;;;;;;7379152;19;20679;-73
2023/01/27 07:32:21;;;;;;;0.10;0.10;;;;;;;;;;7377166;19;20773;-74
2023/01/27 07:34:50;;;;;;;0.10;0.10;;;;;;;;;;7377695;19;20674;-74
2023/01/27 07:37:22;;;;;;;0.10;0.10;;;;;;;;;;7377810;19;20618;-74
2023/01/27 07:39:51;;;;;;;0.10;0.10;;;;;;;;;;7378657;19;20626;-74
2023/01/27 07:42:20;;;;;;;0.10;0.10;;;;;;;;;;7375774;19;20655;-74
2023/01/27 07:44:50;;;;;;;0.13;0.13;;;;;;;;;;7378079;19;20653;-74
2023/01/27 07:47:18;;;;;;;0.10;0.10;;;;;;;;;;7376218;19;20663;-74
2023/01/27 07:49:48;;;;;;;0.10;0.10;;;;;;;;;;7377776;19;20619;-74
2023/01/27 07:52:17;;;;;;;0.10;0.10;;;;;;;;;;7376074;19;20655;-74
2023/01/27 07:54:48;;;;;;;0.10;0.10;;;;;;;;;;7376503;19;20737;-74
2023/01/27 07:57:17;;;;;;;0.10;0.10;;;;;;;;;;7379738;19;20615;-73
2023/01/27 07:59:47;;;;;;;0.13;0.13;;;;;;;;;;7376025;19;20607;-73
2023/01/27 08:02:16;;;;;;;0.10;0.10;;;;;;;;;;7374753;19;20710;-73
2023/01/27 08:04:45;;;;;;;0.10;0.10;;;;;;;;;;7375845;19;20646;-73
2023/01/27 08:07:14;;;;;;;0.10;0.10;;;;;;;;;;7377763;19;20737;-73
2023/01/27 08:09:43;;;;;;;0.10;0.10;;;;;;;;;;7375261;19;20646;-73
2023/01/27 08:12:14;;;;;;;0.10;0.10;;;;;;;;;;7376613;19;20642;-73
2023/01/27 08:14:43;;;;;;;0.10;0.10;;;;;;;;;;7375538;19;20683;-73
2023/01/27 08:17:12;;;;;;;0.10;0.10;;;;;;;;;;7374115;19;20618;-73
2023/01/27 08:19:41;;;;;;;0.10;0.10;;;;;;;;;;7375276;19;20631;-74
2023/01/27 08:22:10;;;;;;;0.10;0.10;;;;;;;;;;7372852;19;20790;-74
2023/01/27 08:24:39;;;;;;;0.10;0.10;;;;;;;;;;7375870;19;20615;-74
2023/01/27 08:27:08;;;;;;;0.10;0.10;;;;;;;;;;7376537;19;20674;-74
2023/01/27 08:29:40;;;;;;;0.10;0.10;;;;;;;;;;7374564;19;20623;-74
2023/01/27 08:32:09;;;;;;;0.10;0.10;;;;;;;;;;7375167;19;20654;-74
2023/01/27 08:34:38;;;;;;;0.10;0.10;;;;;;;;;;7374453;19;20622;-73
2023/01/27 08:37:07;;;;;;;0.10;0.10;;;;;;;;;;7376604;19;20618;-73
2023/01/27 08:39:36;;;;;;;0.10;0.10;;;;;;;;;;7374276;19;20634;-73
2023/01/27 08:42:06;;;;;;;0.10;0.10;;;;;;;;;;7375637;19;20666;-73
2023/01/27 08:44:35;;;;;;;0.10;0.10;;;;;;;;;;7373859;19;20669;-73
2023/01/27 08:47:06;;;;;;;0.10;0.10;;;;;;;;;;7377580;19;20606;-73
2023/01/27 08:49:35;;;;;;;0.10;0.10;;;;;;;;;;7374761;19;20671;-72
2023/01/27 08:52:07;;;;;;;0.10;0.10;;;;;;;;;;7375430;19;20712;-72
2023/01/27 08:54:36;;;;;;;0.10;0.10;;;;;;;;;;7376319;19;20734;-71
2023/01/27 08:57:05;;;;;;;0.10;0.10;;;;;;;;;;7375089;19;20615;-71
2023/01/27 08:59:34;;;;;;;0.10;0.10;;;;;;;;;;7374329;19;20622;-71
2023/01/27 09:02:03;;;;;;;0.10;0.10;;;;;;;;;;7373346;19;20674;-71
2023/01/27 09:04:40;;;;;;;0.10;0.10;;;;;;;;;;7373852;19;20626;-71
2023/01/27 09:07:09;;;;;;;0.10;0.10;;;;;;;;;;7374802;19;20636;-71
2023/01/27 09:09:38;;;;;;;0.10;0.10;;;;;;;;;;7373954;19;20723;-71
2023/01/27 09:12:07;;;;;;;0.10;0.10;;;;;;;;;;7375377;19;20643;-71
2023/01/27 09:14:36;;;;;;;0.10;0.10;;;;;;;;;;7373156;19;20623;-71
2023/01/27 09:17:05;;;;;;;0.10;0.10;;;;;;;;;;7375480;19;20757;-71
2023/01/27 09:19:37;;;;;;;0.10;0.10;;;;;;;;;;7372453;19;20713;-71
2023/01/27 09:22:06;;;;;;;0.10;0.10;;;;;;;;;;7373272;19;20670;-71
2023/01/27 09:24:35;;;;;;;0.10;0.10;;;;;;;;;;7373063;19;20618;-71
2023/01/27 09:27:04;;;;;;;0.10;0.10;;;;;;;;;;7373089;19;20683;-71
2023/01/27 09:29:33;;;;;;;0.13;0.13;;;;;;;;;;7373440;19;20742;-71
2023/01/27 09:32:02;;;;;;;0.10;0.10;;;;;;;;;;7374185;19;20659;-71
2023/01/27 09:34:31;;;;;;;0.10;0.10;;;;;;;;;;7373035;19;20623;-71
2023/01/27 09:37:05;;;;;;;0.10;0.10;;;;;;;;;;7374860;19;20619;-71
2023/01/27 09:39:35;;;;;;;0.10;0.10;;;;;;;;;;7373478;19;20631;-71
2023/01/27 09:42:28;;;;;;;0.10;0.10;;;;;;;;;;7373500;19;20675;-71
2023/01/27 09:45:06;;;;;;;0.10;0.10;;;;;;;;;;7372646;19;20618;-71
2023/01/27 09:47:43;;;;;;;0.10;0.10;;;;;;;;;;7371736;19;20602;-71
2023/01/27 09:50:21;;;;;;;0.10;0.10;;;;;;;;;;7375521;19;20649;-73
2023/01/27 09:53:04;;;;;;;0.10;0.10;;;;;;;;;;7370286;19;20646;-72
2023/01/27 09:55:41;;;;;;;0.10;0.10;;;;;;;;;;7372800;19;20679;-73
2023/01/27 09:58:16;;;;;;;0.10;0.10;;;;;;;;;;7373381;19;20606;-73
2023/01/27 10:00:48;;;;;;;0.10;0.10;;;;;;;;;;7373058;19;20681;-72
2023/01/27 10:03:25;;;;;;;0.10;0.10;;;;;;;;;;7372183;19;20702;-71
2023/01/27 10:06:08;;;;;;;0.10;0.10;;;;;;;;;;7373242;19;20623;-71
2023/01/27 10:08:52;;;;;;;0.10;0.10;;;;;;;;;;7371964;19;20666;-71
2023/01/27 10:11:25;;;;;;;0.10;0.10;;;;;;;;;;7371910;19;20663;-72
2023/01/27 10:14:02;;;;;;;0.10;0.10;;;;;;;;;;7373213;19;20631;-72
2023/01/27 10:16:45;;;;;;;0.10;0.10;;;;;;;;;;7372390;19;20627;-72
2023/01/27 10:19:23;;;;;;;0.10;0.10;;;;;;;;;;7372714;19;20721;-72
2023/01/27 10:21:55;;;;;;;0.10;0.10;;;;;;;;;;7370266;19;20707;-71
2023/01/27 10:24:34;;;;;;;0.10;0.10;;;;;;;;;;7372743;19;20644;-72
2023/01/27 10:27:08;;;;;;;0.10;0.10;;;;;;;;;;7372498;19;20610;-72
2023/01/27 10:29:40;;;;;;;0.10;0.10;;;;;;;;;;7372756;19;20684;-72
2023/01/27 10:32:11;;;;;;;0.10;0.10;;;;;;;;;;7373643;19;20689;-72
2023/01/27 10:34:43;;;;;;;0.10;0.10;;;;;;;;;;7372406;19;20638;-72
2023/01/27 10:37:18;;;;;;;0.10;0.10;;;;;;;;;;7371738;19;20667;-71
2023/01/27 10:39:53;;;;;;;0.10;0.10;;;;;;;;;;7377655;19;20661;-71
2023/01/27 10:42:26;;;;;;;0.10;0.10;;;;;;;;;;7377053;19;20665;-72
2023/01/27 10:45:02;;;;;;;0.10;0.10;;;;;;;;;;7380057;19;20607;-72
2023/01/27 10:47:36;;;;;;;0.10;0.10;;;;;;;;;;7380089;19;20629;-72
2023/01/27 10:50:07;;;;;;;0.10;0.10;;;;;;;;;;7380677;19;20639;-73
2023/01/27 10:52:40;;;;;;;0.10;0.10;;;;;;;;;;7377173;19;20689;-73
2023/01/27 10:55:16;;;;;;;0.10;0.10;;;;;;;;;;7379554;19;20666;-73
2023/01/27 10:57:47;;;;;;;0.10;0.10;;;;;;;;;;7382002;19;20661;-74
2023/01/27 11:00:19;;;;;;;0.10;0.10;;;;;;;;;;7377848;19;20695;-71
2023/01/27 11:02:52;;;;;;;0.10;0.10;;;;;;;;;;7377327;19;20666;-72
2023/01/27 11:05:23;;;;;;;0.10;0.10;;;;;;;;;;7378712;19;20610;-71
2023/01/27 11:07:55;;;;;;;0.10;0.10;;;;;;;;;;7379918;19;20622;-71
2023/01/27 11:10:30;;;;;;;0.10;0.10;;;;;;;;;;7380406;19;20637;-71
2023/01/27 11:13:01;;;;;;;0.10;0.10;;;;;;;;;;7377164;19;20717;-71
2023/01/27 11:15:32;;;;;;;0.10;0.10;;;;;;;;;;7379243;19;20642;-71
2023/01/27 11:18:03;;;;;;;0.10;0.10;;;;;;;;;;7378574;19;20653;-71
2023/01/27 11:20:34;;;;;;;0.10;0.10;;;;;;;;;;7378285;19;20614;-71
2023/01/27 11:23:06;;;;;;;0.10;0.10;;;;;;;;;;7377250;19;20759;-71
2023/01/27 11:25:47;;;;;;;0.10;0.10;;;;;;;;;;7378187;19;20678;-71
2023/01/27 11:28:19;;;;;;;0.10;0.10;;;;;;;;;;7378380;19;20610;-71
2023/01/27 11:30:50;;;;;;;0.10;0.10;;;;;;;;;;7378656;19;20649;-71
2023/01/27 11:33:21;;;;;;;0.10;0.10;;;;;;;;;;7378449;19;20606;-71
2023/01/27 11:35:50;;;;;;;0.10;0.10;;;;;;;;;;7377761;19;20623;-71
2023/01/27 11:38:21;;;;;;;0.10;0.10;;;;;;;;;;7377768;19;20630;-71
2023/01/27 11:40:53;;;;;;;0.10;0.10;;;;;;;;;;7378162;19;20638;-71
2023/01/27 11:43:23;;;;;;;0.10;0.10;;;;;;;;;;7377783;19;20618;-71
2023/01/27 11:45:54;;;;;;;0.10;0.10;;;;;;;;;;7376487;19;20627;-71
2023/01/27 11:48:24;;;;;;;0.10;0.10;;;;;;;;;;7377482;19;20686;-71
2023/01/27 11:50:53;;;;;;;0.10;0.10;;;;;;;;;;7374698;19;20623;-71
2023/01/27 11:53:24;;;;;;;0.10;0.10;;;;;;;;;;7378433;19;20622;-71
2023/01/27 11:55:59;;;;;;;0.10;0.10;;;;;;;;;;7377658;19;20635;-72
2023/01/27 11:58:29;;;;;;;0.10;0.10;;;;;;;;;;7377775;19;20618;-71
2023/01/27 12:00:59;;;;;;;0.10;0.10;;;;;;;;;;7377052;19;20769;-72
2023/01/27 12:03:32;;;;;;;0.10;0.10;;;;;;;;;;7374856;19;20720;-71
2023/01/27 12:06:03;;;;;;;0.10;0.10;;;;;;;;;;7376670;19;20639;-73
2023/01/27 12:08:39;;;;;;;0.10;0.10;;;;;;;;;;7376994;19;20611;-74
2023/01/27 12:11:23;;;;;;;0.10;0.10;;;;;;;;;;7375843;19;20655;-72
2023/01/27 12:13:56;;;;;;;0.10;0.10;;;;;;;;;;7376668;19;20658;-71
2023/01/27 12:16:26;;;;;;;0.10;0.10;;;;;;;;;;7377187;19;20695;-71
2023/01/27 12:18:57;;;;;;;0.10;0.10;;;;;;;;;;7374871;19;20741;-71
2023/01/27 12:21:36;;;;;;;0.10;0.10;;;;;;;;;;7376973;19;20654;-71
2023/01/27 12:24:06;;;;;;;0.10;0.10;;;;;;;;;;7375539;19;20669;-72
2023/01/27 12:26:38;;;;;;;0.10;0.10;;;;;;;;;;7376950;19;20679;-71
2023/01/27 12:29:17;;;;;;;0.10;0.10;;;;;;;;;;7375669;19;20611;-73
2023/01/27 12:31:47;;;;;;;0.10;0.10;;;;;;;;;;7374381;19;20719;-72
2023/01/27 12:34:23;;;;;;;0.10;0.10;;;;;;;;;;7375732;19;20646;-74
2023/01/27 12:36:52;;;;;;;0.10;0.10;;;;;;;;;;7375446;19;20642;-71
2023/01/27 12:39:31;;;;;;;0.10;0.10;;;;;;;;;;7375787;19;20639;-72
2023/01/27 12:42:00;;;;;;;0.10;0.10;;;;;;;;;;7373929;19;20693;-72
2023/01/27 12:44:42;;;;;;;0.10;0.10;;;;;;;;;;7376209;19;20669;-71
2023/01/27 12:47:24;;;;;;;0.10;0.10;;;;;;;;;;7364127;19;20722;-71
2023/01/27 12:49:53;;;;;;;0.10;0.10;;;;;;;;;;7364553;19;20630;-71
2023/01/27 12:52:22;;;;;;;0.10;0.10;;;;;;;;;;7370812;19;20729;-71
2023/01/27 12:54:53;;;;;;;0.10;0.10;;;;;;;;;;7367647;19;20701;-71
2023/01/27 12:57:22;;;;;;;0.10;0.10;;;;;;;;;;7371431;19;20615;-71
2023/01/27 12:59:57;;;;;;;0.10;0.10;;;;;;;;;;7374433;19;20619;-71
2023/01/27 13:02:27;;;;;;;0.10;0.10;;;;;;;;;;7373442;19;20717;-72
2023/01/27 13:04:57;;;;;;;0.10;0.10;;;;;;;;;;7372631;19;20627;-71
2023/01/27 13:07:27;;;;;;;0.10;0.10;;;;;;;;;;7365384;19;20661;-72
2023/01/27 13:09:57;;;;;;;0.10;0.10;;;;;;;;;;7369622;19;20669;-70
2023/01/27 13:12:28;;;;;;;0.10;0.10;;;;;;;;;;7371359;19;20654;-70
2023/01/27 13:15:00;;;;;;;0.10;0.10;;;;;;;;;;7371811;19;20646;-70
2023/01/27 13:17:31;;;;;;;0.10;0.10;;;;;;;;;;7374899;19;20627;-71
2023/01/27 13:20:01;;;;;;;0.10;0.10;;;;;;;;;;7371626;19;20619;-70
2023/01/27 13:22:32;;;;;;;0.10;0.10;;;;;;;;;;7377627;19;20729;-72
2023/01/27 13:25:02;;;;;;;0.10;0.10;;;;;;;;;;7377805;19;20665;-70
2023/01/27 13:27:35;;;;;;;0.10;0.10;;;;;;;;;;7379150;19;20699;-71
2023/01/27 13:30:12;;;;;;;0.10;0.10;;;;;;;;;;7376859;19;20668;-71
2023/01/27 13:32:42;;;;;;;0.10;0.10;;;;;;;;;;7375350;19;20658;-71
2023/01/27 13:35:18;;;;;;;0.10;0.10;;;;;;;;;;7373936;19;20622;-71
2023/01/27 13:37:53;;;;;;;0.10;0.10;;;;;;;;;;7371889;19;20645;-71
2023/01/27 13:40:24;;;;;;;0.10;0.10;;;;;;;;;;7365541;19;21029;-71
2023/01/27 13:42:56;;;;;;;0.10;0.10;;;;;;;;;;7370411;19;20793;-71
2023/01/27 13:45:32;;;;;;;0.10;0.10;;;;;;;;;;7372440;19;20682;-71
2023/01/27 13:48:03;;;;;;;0.10;0.10;;;;;;;;;;7372639;19;20627;-71
2023/01/27 13:50:35;;;;;;;0.10;0.10;;;;;;;;;;7373678;19;20615;-73
2023/01/27 13:53:04;;;;;;;0.10;0.10;;;;;;;;;;7370568;19;20703;-71
2023/01/27 13:55:42;;;;;;;0.10;0.10;;;;;;;;;;7372552;19;20649;-71
2023/01/27 13:58:15;;;;;;;0.10;0.10;;;;;;;;;;7373443;19;20622;-71
2023/01/27 14:00:49;;;;;;;0.10;0.10;;;;;;;;;;7372597;19;20734;-71
2023/01/27 14:03:23;;;;;;;0.10;0.10;;;;;;;;;;7372238;19;20698;-72
2023/01/27 14:06:13;;;;;;;0.10;0.10;;;;;;;;;;7371984;19;20618;-72
2023/01/27 14:08:55;;;;;;;0.10;0.10;;;;;;;;;;7371332;19;20643;-72
2023/01/27 14:11:29;;;;;;;0.10;0.10;;;;;;;;;;7365771;19;20801;-71
2023/01/27 14:14:07;;;;;;;0.10;0.10;;;;;;;;;;7378221;19;20705;-71
2023/01/27 14:16:42;;;;;;;0.10;0.10;;;;;;;;;;7386480;19;20607;-69
2023/01/27 14:19:18;;;;;;;0.10;0.10;;;;;;;;;;7384458;19;20634;-70
2023/01/27 14:21:53;;;;;;;0.10;0.10;;;;;;;;;;7379437;19;20679;-70
2023/01/27 14:24:31;;;;;;;0.10;0.10;;;;;;;;;;7379647;19;20682;-70
2023/01/27 14:27:04;;;;;;;0.10;0.10;;;;;;;;;;7379867;19;20704;-71
2023/01/27 14:29:39;;;;;;;0.10;0.10;;;;;;;;;;7379317;19;20615;-71
2023/01/27 14:32:13;;;;;;;0.10;0.10;;;;;;;;;;7379622;19;20740;-69
2023/01/27 14:34:52;;;;;;;0.10;0.10;;;;;;;;;;7383279;19;20669;-71
2023/01/27 14:37:24;;;;;;;0.10;0.10;;;;;;;;;;7383949;19;20626;-72
2023/01/27 14:40:01;;;;;;;0.10;0.10;;;;;;;;;;7383114;19;20622;-70
2023/01/27 14:42:35;;;;;;;0.10;0.10;;;;;;;;;;7381912;19;20700;-72
2023/01/27 14:45:06;;;;;;;0.10;0.10;;;;;;;;;;7380407;19;20623;-73
2023/01/27 14:47:44;;;;;;;0.10;0.10;;;;;;;;;;7382997;19;20618;-75
2023/01/27 14:50:23;;;;;;;0.10;0.10;;;;;;;;;;7383618;19;20630;-70
2023/01/27 14:52:56;;;;;;;0.10;0.10;;;;;;;;;;7380676;19;20725;-70
2023/01/27 14:55:30;;;;;;;0.10;0.10;;;;;;;;;;7382924;19;20656;-72
2023/01/27 14:58:03;;;;;;;0.10;0.10;;;;;;;;;;7384070;19;20609;-72
2023/01/27 15:00:38;;;;;;;0.10;0.10;;;;;;;;;;7380255;19;20630;-72
2023/01/27 15:03:21;;;;;;;0.10;0.10;;;;;;;;;;7375820;19;20666;-71
2023/01/27 15:05:57;;;;;;;0.10;0.10;;;;;;;;;;7377564;19;20622;-72
2023/01/27 15:08:30;;;;;;;0.10;0.10;;;;;;;;;;7378890;19;20736;-72
2023/01/27 15:11:03;;;;;;;0.10;0.10;;;;;;;;;;7377692;19;20721;-72
2023/01/27 15:13:40;;;;;;;0.10;0.10;;;;;;;;;;7378099;19;20756;-72
2023/01/27 15:16:17;;;;;;;0.10;0.10;;;;;;;;;;7378788;19;20614;-72
2023/01/27 15:19:07;;;;;;;0.10;0.10;;;;;;;;;;7378194;19;20622;-72
2023/01/27 15:21:47;;;;;;;0.10;0.10;;;;;;;;;;7377849;19;20663;-72
2023/01/27 15:24:31;;;;;;;0.10;0.10;;;;;;;;;;7374900;19;20667;-71
2023/01/27 15:27:00;;;;;;;0.10;0.10;;;;;;;;;;7376512;19;20702;-71
2023/01/27 15:29:30;;;;;;;0.10;0.10;;;;;;;;;;7377408;19;20615;-71
2023/01/27 15:32:13;;;;;;;0.10;0.10;;;;;;;;;;7377000;19;20655;-71
2023/01/27 15:34:42;;;;;;;0.10;0.10;;;;;;;;;;7378407;19;20663;-76
2023/01/27 15:37:22;;;;;;;0.10;0.10;;;;;;;;;;7378903;19;20679;-74
2023/01/27 15:39:55;;;;;;;0.10;0.10;;;;;;;;;;7388725;19;20674;-72